Time;durP1;ratioP1;P1;durP2;ratioP2;P2;SDS_P1;SDS_P2;PMS_P1;PMS_P2;Temp;Humidity;BMP_temperature;BMP_pressure;BME280_temperature;BME280_humidity;BME280_pressure;Samples;Min_cycle;Max_cycle;Signal;HPM_P1;HPM_P2
2022/08/31 00:05:08;;;;;;;2.05;0.70;;;;;;;;;;5071756;28;20039;-69
2022/08/31 00:07:39;;;;;;;2.10;1.00;;;;;;;;;;5053511;28;20059;-68
2022/08/31 00:10:17;;;;;;;3.42;1.20;;;;;;;;;;5071988;28;20047;-69
2022/08/31 00:13:05;;;;;;;1.55;1.30;;;;;;;;;;5072068;28;20132;-70
2022/08/31 00:15:37;;;;;;;1.85;0.80;;;;;;;;;;5071840;28;20059;-68
2022/08/31 00:18:07;;;;;;;2.30;0.90;;;;;;;;;;5053279;28;20048;-69
2022/08/31 00:20:39;;;;;;;2.42;0.85;;;;;;;;;;5071783;28;20489;-69
2022/08/31 00:23:11;;;;;;;1.63;0.93;;;;;;;;;;5069808;28;20520;-68
2022/08/31 00:25:46;;;;;;;5.20;0.90;;;;;;;;;;5071950;28;20531;-68
2022/08/31 00:28:18;;;;;;;1.40;0.82;;;;;;;;;;5071949;28;20037;-68
2022/08/31 00:30:49;;;;;;;1.60;0.73;;;;;;;;;;5069329;28;20048;-68
2022/08/31 00:33:20;;;;;;;1.70;1.00;;;;;;;;;;5032499;28;20049;-68
2022/08/31 00:35:51;;;;;;;1.38;0.60;;;;;;;;;;5049196;28;20063;-69
2022/08/31 00:38:23;;;;;;;1.23;0.50;;;;;;;;;;5049560;28;20056;-67
2022/08/31 00:40:53;;;;;;;1.40;0.90;;;;;;;;;;5049390;28;20048;-70
2022/08/31 00:43:34;;;;;;;1.45;0.70;;;;;;;;;;5048945;28;20049;-69
2022/08/31 00:46:06;;;;;;;8.05;3.92;;;;;;;;;;5048708;28;20061;-70
2022/08/31 00:48:45;;;;;;;1.60;0.75;;;;;;;;;;5048599;28;20044;-70
2022/08/31 00:51:15;;;;;;;1.52;0.75;;;;;;;;;;5048875;28;20061;-69
2022/08/31 00:53:47;;;;;;;1.95;0.90;;;;;;;;;;5015429;28;20049;-69
2022/08/31 00:56:19;;;;;;;3.15;0.80;;;;;;;;;;5049142;28;20052;-69
2022/08/31 00:58:51;;;;;;;2.90;0.90;;;;;;;;;;5049090;28;20084;-70
2022/08/31 01:01:23;;;;;;;1.38;0.60;;;;;;;;;;5049131;28;20056;-70
2022/08/31 01:03:54;;;;;;;1.98;0.90;;;;;;;;;;5049096;28;20056;-68
2022/08/31 01:06:26;;;;;;;2.00;1.50;;;;;;;;;;5049142;28;20463;-70
2022/08/31 01:08:58;;;;;;;3.50;1.23;;;;;;;;;;5062855;28;20049;-69
2022/08/31 01:11:32;;;;;;;2.13;0.85;;;;;;;;;;4989440;28;20052;-69
2022/08/31 01:14:03;;;;;;;1.83;0.75;;;;;;;;;;5049048;28;20117;-69
2022/08/31 01:16:53;;;;;;;1.90;0.80;;;;;;;;;;5050097;28;20064;-69
2022/08/31 01:19:35;;;;;;;2.30;1.05;;;;;;;;;;5039185;28;20064;-70
2022/08/31 01:22:29;;;;;;;1.90;0.98;;;;;;;;;;4979139;28;20077;-68
2022/08/31 01:25:00;;;;;;;3.92;0.98;;;;;;;;;;4974305;28;20163;-69
2022/08/31 01:27:35;;;;;;;1.90;1.00;;;;;;;;;;4973990;28;20063;-65
2022/08/31 01:30:10;;;;;;;1.52;0.90;;;;;;;;;;5012874;28;20061;-69
2022/08/31 01:32:41;;;;;;;1.77;0.95;;;;;;;;;;5012989;28;20053;-69
2022/08/31 01:35:12;;;;;;;1.77;1.00;;;;;;;;;;5013227;28;20069;-69
2022/08/31 01:37:43;;;;;;;1.63;0.93;;;;;;;;;;5012727;28;20433;-69
2022/08/31 01:40:16;;;;;;;2.45;1.10;;;;;;;;;;5012945;28;20588;-68
2022/08/31 01:42:47;;;;;;;2.10;1.13;;;;;;;;;;5032522;28;20441;-68
2022/08/31 01:45:19;;;;;;;2.55;1.00;;;;;;;;;;5027157;28;20413;-69
2022/08/31 01:47:49;;;;;;;1.98;0.95;;;;;;;;;;5036083;28;20052;-69
2022/08/31 01:50:20;;;;;;;1.65;0.88;;;;;;;;;;5052455;28;20572;-68
2022/08/31 01:52:51;;;;;;;1.80;1.00;;;;;;;;;;4986248;28;20060;-69
2022/08/31 01:55:21;;;;;;;5.07;1.10;;;;;;;;;;5032073;28;20537;-69
2022/08/31 01:57:53;;;;;;;3.58;1.15;;;;;;;;;;4960451;28;20498;-69
2022/08/31 02:00:42;;;;;;;3.97;2.17;;;;;;;;;;5027873;28;20052;-69
2022/08/31 02:03:14;;;;;;;2.20;1.23;;;;;;;;;;5031931;28;20057;-67
2022/08/31 02:05:45;;;;;;;3.38;1.05;;;;;;;;;;4966721;28;20052;-68
2022/08/31 02:08:16;;;;;;;2.60;1.13;;;;;;;;;;4992308;28;20054;-68
2022/08/31 02:10:46;;;;;;;2.50;1.33;;;;;;;;;;4972947;28;20091;-68
2022/08/31 02:13:17;;;;;;;3.97;1.40;;;;;;;;;;4973007;28;20062;-68
2022/08/31 02:15:51;;;;;;;1.70;1.00;;;;;;;;;;4937491;29;20091;-68
2022/08/31 02:18:21;;;;;;;8.55;1.25;;;;;;;;;;4922504;29;20063;-68
2022/08/31 02:20:52;;;;;;;4.10;1.30;;;;;;;;;;4940949;29;20075;-68
2022/08/31 02:23:23;;;;;;;2.95;1.45;;;;;;;;;;4953385;28;20051;-68
2022/08/31 02:25:54;;;;;;;2.25;1.02;;;;;;;;;;4953617;29;20063;-67
2022/08/31 02:28:24;;;;;;;2.30;1.20;;;;;;;;;;4933478;29;20048;-68
2022/08/31 02:30:55;;;;;;;3.33;1.02;;;;;;;;;;4902964;29;20060;-67
2022/08/31 02:33:27;;;;;;;2.58;0.90;;;;;;;;;;4934107;29;20551;-67
2022/08/31 02:36:00;;;;;;;2.17;1.00;;;;;;;;;;4966223;28;20107;-68
2022/08/31 02:38:32;;;;;;;3.08;0.77;;;;;;;;;;4972603;28;20059;-68
2022/08/31 02:41:03;;;;;;;2.35;1.45;;;;;;;;;;4942400;29;20063;-68
2022/08/31 02:43:36;;;;;;;2.25;1.25;;;;;;;;;;4910660;29;20068;-67
2022/08/31 02:46:07;;;;;;;2.10;0.85;;;;;;;;;;4875445;29;20051;-68
2022/08/31 02:48:43;;;;;;;1.63;0.75;;;;;;;;;;4933560;29;20059;-68
2022/08/31 02:51:17;;;;;;;2.28;0.90;;;;;;;;;;4895823;29;20049;-71
2022/08/31 02:53:49;;;;;;;2.25;0.90;;;;;;;;;;4876079;29;20055;-68
2022/08/31 02:56:20;;;;;;;3.40;1.33;;;;;;;;;;4895947;29;20065;-69
2022/08/31 02:58:53;;;;;;;1.15;0.93;;;;;;;;;;4895911;29;20141;-68
2022/08/31 03:01:25;;;;;;;2.03;0.80;;;;;;;;;;4883777;29;20473;-68
2022/08/31 03:03:57;;;;;;;1.83;0.98;;;;;;;;;;4914386;29;20056;-67
2022/08/31 03:06:30;;;;;;;1.52;0.70;;;;;;;;;;4907063;29;20537;-68
2022/08/31 03:09:01;;;;;;;1.95;0.90;;;;;;;;;;4914355;29;20048;-67
2022/08/31 03:11:32;;;;;;;3.05;0.70;;;;;;;;;;4914740;29;20060;-67
2022/08/31 03:14:02;;;;;;;1.90;0.90;;;;;;;;;;4892004;29;20545;-68
2022/08/31 03:16:32;;;;;;;2.47;1.10;;;;;;;;;;4914378;29;20052;-68
2022/08/31 03:19:03;;;;;;;1.80;1.10;;;;;;;;;;4907591;29;20063;-68
2022/08/31 03:21:34;;;;;;;2.00;1.00;;;;;;;;;;4902564;29;20441;-68
2022/08/31 03:24:04;;;;;;;1.58;0.80;;;;;;;;;;4907545;29;20575;-68
2022/08/31 03:26:37;;;;;;;2.03;0.98;;;;;;;;;;4902096;29;20063;-67
2022/08/31 03:29:07;;;;;;;2.22;0.88;;;;;;;;;;4955174;28;20051;-68
2022/08/31 03:32:03;;;;;;;1.52;0.73;;;;;;;;;;4972234;28;20062;-68
2022/08/31 03:34:35;;;;;;;1.52;1.00;;;;;;;;;;4971167;28;20058;-67
2022/08/31 03:37:06;;;;;;;1.85;0.80;;;;;;;;;;4971461;28;20050;-68
2022/08/31 03:39:37;;;;;;;2.60;1.08;;;;;;;;;;4984568;28;20046;-68
2022/08/31 03:42:08;;;;;;;1.90;1.13;;;;;;;;;;4960413;28;20054;-69
2022/08/31 03:44:38;;;;;;;3.08;0.80;;;;;;;;;;4951929;28;20054;-69
2022/08/31 03:47:18;;;;;;;2.70;0.90;;;;;;;;;;4913575;29;20063;-68
2022/08/31 03:49:49;;;;;;;1.88;1.02;;;;;;;;;;4932694;29;20056;-68
2022/08/31 03:52:23;;;;;;;2.90;1.08;;;;;;;;;;4940764;28;20047;-69
2022/08/31 03:55:11;;;;;;;2.20;1.00;;;;;;;;;;4901345;29;20060;-68
2022/08/31 03:57:42;;;;;;;2.90;1.13;;;;;;;;;;4915398;29;20067;-68
2022/08/31 04:00:13;;;;;;;1.83;0.90;;;;;;;;;;4948154;29;20052;-67
2022/08/31 04:02:49;;;;;;;1.70;0.80;;;;;;;;;;4951276;29;20051;-68
2022/08/31 04:05:36;;;;;;;2.00;0.90;;;;;;;;;;4952016;28;20159;-68
2022/08/31 04:08:13;;;;;;;2.10;0.90;;;;;;;;;;4950898;28;20078;-68
2022/08/31 04:10:49;;;;;;;3.28;0.82;;;;;;;;;;4933013;29;20052;-68
2022/08/31 04:13:39;;;;;;;1.20;0.80;;;;;;;;;;4951850;28;20059;-67
2022/08/31 04:16:21;;;;;;;2.35;1.00;;;;;;;;;;4952037;28;20059;-68
2022/08/31 04:19:10;;;;;;;1.70;0.80;;;;;;;;;;4952234;28;20056;-68
2022/08/31 04:21:48;;;;;;;3.22;1.00;;;;;;;;;;4952364;28;20062;-68
2022/08/31 04:24:19;;;;;;;2.60;0.95;;;;;;;;;;4966035;28;20058;-68
2022/08/31 04:26:52;;;;;;;1.92;1.05;;;;;;;;;;4925004;29;20063;-68
2022/08/31 04:29:22;;;;;;;2.00;1.02;;;;;;;;;;4955368;28;20411;-67
2022/08/31 04:31:54;;;;;;;1.83;0.93;;;;;;;;;;4957812;28;20054;-68
2022/08/31 04:34:24;;;;;;;2.30;1.10;;;;;;;;;;4987835;28;20061;-68
2022/08/31 04:36:55;;;;;;;3.47;1.00;;;;;;;;;;4968455;28;20495;-68
2022/08/31 04:39:26;;;;;;;3.13;1.05;;;;;;;;;;4951404;29;20071;-68
2022/08/31 04:42:00;;;;;;;3.33;1.00;;;;;;;;;;4951026;29;20047;-68
2022/08/31 04:44:33;;;;;;;2.38;1.40;;;;;;;;;;4931807;29;20428;-69
2022/08/31 04:47:04;;;;;;;2.65;0.98;;;;;;;;;;4931750;29;20058;-68
2022/08/31 04:49:34;;;;;;;1.83;0.85;;;;;;;;;;4950726;29;20062;-69
2022/08/31 04:52:05;;;;;;;1.70;1.23;;;;;;;;;;4950160;29;20408;-68
2022/08/31 04:54:36;;;;;;;2.30;0.90;;;;;;;;;;4950956;29;20059;-67
2022/08/31 04:57:07;;;;;;;2.13;0.80;;;;;;;;;;4970069;28;20081;-68
2022/08/31 04:59:37;;;;;;;2.45;0.90;;;;;;;;;;4998093;28;20055;-67
2022/08/31 05:02:27;;;;;;;1.55;0.68;;;;;;;;;;4989721;28;20066;-68
2022/08/31 05:05:04;;;;;;;2.33;1.75;;;;;;;;;;4954196;28;20043;-68
2022/08/31 05:07:36;;;;;;;2.00;1.10;;;;;;;;;;4948732;28;20062;-68
2022/08/31 05:10:08;;;;;;;2.35;0.93;;;;;;;;;;4955741;28;20484;-68
2022/08/31 05:12:38;;;;;;;1.13;0.70;;;;;;;;;;4955926;28;20051;-67
2022/08/31 05:15:10;;;;;;;2.20;0.95;;;;;;;;;;4917675;29;20060;-68
2022/08/31 05:17:41;;;;;;;2.20;1.05;;;;;;;;;;4912689;29;20052;-68
2022/08/31 05:20:11;;;;;;;2.85;0.90;;;;;;;;;;4883524;29;20060;-68
2022/08/31 05:22:41;;;;;;;2.38;1.08;;;;;;;;;;4887098;29;20134;-69
2022/08/31 05:25:11;;;;;;;1.77;0.98;;;;;;;;;;4881003;29;20422;-68
2022/08/31 05:27:42;;;;;;;1.60;0.75;;;;;;;;;;4906649;29;20064;-68
2022/08/31 05:30:13;;;;;;;2.13;1.00;;;;;;;;;;4918477;29;20464;-68
2022/08/31 05:32:48;;;;;;;1.23;0.75;;;;;;;;;;4912552;29;20056;-69
2022/08/31 05:35:19;;;;;;;2.75;1.45;;;;;;;;;;4855055;29;20045;-68
2022/08/31 05:37:50;;;;;;;3.55;0.90;;;;;;;;;;4859534;29;20064;-68
2022/08/31 05:40:21;;;;;;;2.95;0.93;;;;;;;;;;4843904;29;20130;-68
2022/08/31 05:42:51;;;;;;;1.58;0.63;;;;;;;;;;4865333;29;20062;-68
2022/08/31 05:45:21;;;;;;;1.58;0.90;;;;;;;;;;4846622;29;20058;-68
2022/08/31 05:47:52;;;;;;;2.53;0.95;;;;;;;;;;4838139;29;20061;-68
2022/08/31 05:50:22;;;;;;;2.35;1.13;;;;;;;;;;4856263;29;20057;-68
2022/08/31 05:52:52;;;;;;;2.15;0.88;;;;;;;;;;4887372;29;20061;-68
2022/08/31 05:55:22;;;;;;;3.20;0.95;;;;;;;;;;4856186;29;20062;-69
2022/08/31 05:57:53;;;;;;;2.30;1.42;;;;;;;;;;4892891;29;20521;-68
2022/08/31 06:00:27;;;;;;;2.33;0.90;;;;;;;;;;4893526;29;20068;-68
2022/08/31 06:03:13;;;;;;;1.50;0.80;;;;;;;;;;4908891;29;20060;-68
2022/08/31 06:05:44;;;;;;;3.15;1.00;;;;;;;;;;4931209;29;20044;-68
2022/08/31 06:08:15;;;;;;;2.17;1.00;;;;;;;;;;4928082;29;20067;-68
2022/08/31 06:10:52;;;;;;;2.03;1.00;;;;;;;;;;4940966;29;20052;-68
2022/08/31 06:13:25;;;;;;;2.40;1.10;;;;;;;;;;4930882;29;20539;-68
2022/08/31 06:15:56;;;;;;;2.55;0.90;;;;;;;;;;4934392;29;20055;-68
2022/08/31 06:18:27;;;;;;;2.92;1.00;;;;;;;;;;4928198;29;20523;-68
2022/08/31 06:21:02;;;;;;;2.20;1.23;;;;;;;;;;4934550;29;20063;-68
2022/08/31 06:23:33;;;;;;;2.45;1.00;;;;;;;;;;4949902;29;20436;-68
2022/08/31 06:26:11;;;;;;;1.98;0.93;;;;;;;;;;4953433;29;20051;-68
2022/08/31 06:28:46;;;;;;;2.13;1.00;;;;;;;;;;4871772;29;20390;-68
2022/08/31 06:31:28;;;;;;;2.58;1.50;;;;;;;;;;4896111;29;20473;-68
2022/08/31 06:34:00;;;;;;;4.22;0.90;;;;;;;;;;4914980;29;20472;-68
2022/08/31 06:36:49;;;;;;;2.20;0.80;;;;;;;;;;4897225;29;20052;-68
2022/08/31 06:39:32;;;;;;;2.10;1.17;;;;;;;;;;4858839;29;20133;-67
2022/08/31 06:42:21;;;;;;;3.28;0.88;;;;;;;;;;4829157;29;20058;-67
2022/08/31 06:45:06;;;;;;;2.33;0.73;;;;;;;;;;4859639;29;20462;-68
2022/08/31 06:47:43;;;;;;;1.63;0.75;;;;;;;;;;4861540;29;20529;-67
2022/08/31 06:50:14;;;;;;;1.77;0.95;;;;;;;;;;4868066;29;20056;-68
2022/08/31 06:52:47;;;;;;;2.03;0.77;;;;;;;;;;4889938;29;20060;-68
2022/08/31 06:55:38;;;;;;;2.63;1.20;;;;;;;;;;4853093;29;20060;-68
2022/08/31 06:58:36;;;;;;;1.80;0.90;;;;;;;;;;4858925;29;20136;-68
2022/08/31 07:01:35;;;;;;;1.95;0.82;;;;;;;;;;4858965;29;20493;-68
2022/08/31 07:04:18;;;;;;;2.42;1.10;;;;;;;;;;4845080;29;20061;-68
2022/08/31 07:06:49;;;;;;;1.77;0.98;;;;;;;;;;4827950;29;20050;-68
2022/08/31 07:09:19;;;;;;;2.60;1.00;;;;;;;;;;4821962;29;20058;-68
2022/08/31 07:11:51;;;;;;;2.40;1.00;;;;;;;;;;4860368;29;20510;-68
2022/08/31 07:14:24;;;;;;;3.35;1.10;;;;;;;;;;4877071;29;20541;-68
2022/08/31 07:17:01;;;;;;;2.10;1.08;;;;;;;;;;4895498;29;20049;-68
2022/08/31 07:19:33;;;;;;;2.00;0.90;;;;;;;;;;4891057;29;20161;-68
2022/08/31 07:22:08;;;;;;;3.30;1.30;;;;;;;;;;4895933;29;20486;-68
2022/08/31 07:24:46;;;;;;;1.98;0.90;;;;;;;;;;4895321;29;20068;-68
2022/08/31 07:27:17;;;;;;;1.88;0.98;;;;;;;;;;4870205;29;20059;-68
2022/08/31 07:29:54;;;;;;;2.60;1.10;;;;;;;;;;4890861;29;20049;-67
2022/08/31 07:32:25;;;;;;;2.13;0.98;;;;;;;;;;4876567;29;20069;-68
2022/08/31 07:34:55;;;;;;;2.30;0.98;;;;;;;;;;4901127;29;20202;-68
2022/08/31 07:43:15;;;;;;;2.63;0.88;;;;;;;;;;4857507;29;20054;-68
2022/08/31 07:45:46;;;;;;;1.55;0.90;;;;;;;;;;4894964;29;20071;-67
2022/08/31 07:48:23;;;;;;;2.10;1.00;;;;;;;;;;4912057;29;20052;-67
2022/08/31 07:51:22;;;;;;;2.17;0.93;;;;;;;;;;4876379;29;20057;-68
2022/08/31 07:54:10;;;;;;;1.95;0.90;;;;;;;;;;4876970;29;20057;-67
2022/08/31 07:56:47;;;;;;;3.13;1.05;;;;;;;;;;4894588;29;20052;-67
2022/08/31 07:59:22;;;;;;;1.48;0.77;;;;;;;;;;4895152;29;20068;-67
2022/08/31 08:01:58;;;;;;;2.45;0.85;;;;;;;;;;4924988;28;20496;-68
2022/08/31 08:04:29;;;;;;;1.55;0.80;;;;;;;;;;4971261;28;20062;-67
2022/08/31 08:07:25;;;;;;;3.28;1.15;;;;;;;;;;4971113;28;20059;-67
2022/08/31 08:10:31;;;;;;;2.90;1.20;;;;;;;;;;4964623;28;20050;-67
2022/08/31 08:13:24;;;;;;;2.90;1.10;;;;;;;;;;4972325;28;20061;-67
2022/08/31 08:16:05;;;;;;;3.92;1.10;;;;;;;;;;4970814;28;20054;-68
2022/08/31 08:18:54;;;;;;;3.20;1.08;;;;;;;;;;4971401;28;20051;-68
2022/08/31 08:21:29;;;;;;;4.20;1.65;;;;;;;;;;4970789;28;20051;-67
2022/08/31 08:24:00;;;;;;;3.47;1.00;;;;;;;;;;4923215;29;20092;-66
2022/08/31 08:26:51;;;;;;;2.67;1.20;;;;;;;;;;4928686;29;20048;-67
2022/08/31 08:29:34;;;;;;;3.35;1.23;;;;;;;;;;4932584;29;20672;-68
2022/08/31 08:32:08;;;;;;;2.55;1.15;;;;;;;;;;4947236;29;20051;-67
2022/08/31 08:34:45;;;;;;;3.00;1.08;;;;;;;;;;4909800;29;20063;-67
2022/08/31 08:37:15;;;;;;;2.90;1.10;;;;;;;;;;4970447;28;20168;-67
2022/08/31 08:40:04;;;;;;;2.00;0.88;;;;;;;;;;4964165;28;20050;-68
2022/08/31 08:42:38;;;;;;;4.00;1.20;;;;;;;;;;4936488;28;20063;-67
2022/08/31 08:45:09;;;;;;;4.00;1.38;;;;;;;;;;4970406;28;20055;-68
2022/08/31 08:47:40;;;;;;;2.47;1.30;;;;;;;;;;4979577;28;20047;-67
2022/08/31 08:50:12;;;;;;;2.22;1.02;;;;;;;;;;4970618;28;20055;-67
2022/08/31 08:52:45;;;;;;;2.70;1.10;;;;;;;;;;4970420;28;20063;-68
2022/08/31 08:55:21;;;;;;;3.58;1.50;;;;;;;;;;4989510;28;21085;-67
2022/08/31 08:57:54;;;;;;;2.65;1.27;;;;;;;;;;4989430;28;20046;-68
2022/08/31 09:00:27;;;;;;;3.08;1.35;;;;;;;;;;4989346;28;20558;-68
2022/08/31 09:03:40;;;;;;;2.28;1.20;;;;;;;;;;5024356;28;20529;-68
2022/08/31 09:06:33;;;;;;;3.67;1.40;;;;;;;;;;5009201;28;20057;-68
2022/08/31 09:09:39;;;;;;;2.72;1.13;;;;;;;;;;5022995;28;20061;-67
2022/08/31 09:12:30;;;;;;;3.78;1.20;;;;;;;;;;5001044;28;20550;-68
2022/08/31 09:15:17;;;;;;;3.55;1.10;;;;;;;;;;4969311;28;20063;-68
2022/08/31 09:17:50;;;;;;;3.33;1.20;;;;;;;;;;4989396;28;20038;-67
2022/08/31 09:20:27;;;;;;;1.80;0.90;;;;;;;;;;4978295;28;20065;-68
2022/08/31 09:22:59;;;;;;;2.70;1.10;;;;;;;;;;4968092;28;20059;-68
2022/08/31 09:25:37;;;;;;;3.28;1.77;;;;;;;;;;4986944;28;20503;-68
2022/08/31 09:28:48;;;;;;;3.58;1.35;;;;;;;;;;4947524;28;20054;-68
2022/08/31 09:31:40;;;;;;;3.47;1.50;;;;;;;;;;4985884;28;20058;-67
2022/08/31 09:34:28;;;;;;;3.63;1.52;;;;;;;;;;4950851;29;20504;-68
2022/08/31 09:37:23;;;;;;;3.95;1.45;;;;;;;;;;4950544;28;20070;-67
2022/08/31 09:39:54;;;;;;;2.25;1.15;;;;;;;;;;4919266;29;20550;-68
2022/08/31 09:42:30;;;;;;;3.22;1.27;;;;;;;;;;4935552;29;20067;-69
2022/08/31 09:45:16;;;;;;;3.20;1.50;;;;;;;;;;4951099;29;20444;-68
2022/08/31 09:47:51;;;;;;;5.30;1.65;;;;;;;;;;4915833;29;20055;-68
2022/08/31 09:50:43;;;;;;;6.15;2.20;;;;;;;;;;4916232;29;20059;-68
2022/08/31 09:56:17;;;;;;;4.53;2.08;;;;;;;;;;4935116;29;20052;-68
2022/08/31 09:58:51;;;;;;;5.28;2.13;;;;;;;;;;4966799;28;20048;-68
2022/08/31 10:01:36;;;;;;;4.88;2.25;;;;;;;;;;4935260;29;20598;-68
2022/08/31 10:04:31;;;;;;;8.48;2.22;;;;;;;;;;4915879;29;20056;-69
2022/08/31 10:07:12;;;;;;;6.72;2.65;;;;;;;;;;4916083;29;20063;-68
2022/08/31 10:09:49;;;;;;;5.68;2.22;;;;;;;;;;4915801;29;20451;-69
2022/08/31 10:12:33;;;;;;;4.43;2.20;;;;;;;;;;4934674;29;20058;-68
2022/08/31 10:15:12;;;;;;;4.15;1.75;;;;;;;;;;4934839;29;20063;-68
2022/08/31 10:18:13;;;;;;;6.97;1.95;;;;;;;;;;4964962;28;20062;-68
2022/08/31 10:20:54;;;;;;;4.68;1.90;;;;;;;;;;4992769;28;20054;-68
2022/08/31 10:23:33;;;;;;;4.80;1.83;;;;;;;;;;4992497;28;20059;-68
2022/08/31 10:26:17;;;;;;;5.47;1.90;;;;;;;;;;4978210;28;20062;-68
2022/08/31 10:28:55;;;;;;;4.53;2.03;;;;;;;;;;4973282;28;20051;-68
2022/08/31 10:31:41;;;;;;;8.13;2.50;;;;;;;;;;4987024;28;20063;-69
2022/08/31 10:37:17;;;;;;;5.90;2.25;;;;;;;;;;4994777;28;20049;-68
2022/08/31 10:39:53;;;;;;;7.53;2.40;;;;;;;;;;4978978;28;20423;-67
2022/08/31 10:42:37;;;;;;;5.15;2.15;;;;;;;;;;5011708;28;20065;-69
2022/08/31 10:45:14;;;;;;;5.55;2.20;;;;;;;;;;4996370;28;20103;-68
2022/08/31 10:47:49;;;;;;;5.82;2.33;;;;;;;;;;5011407;28;20049;-69
2022/08/31 10:50:50;;;;;;;7.13;2.55;;;;;;;;;;5008503;28;20057;-68
2022/08/31 10:53:44;;;;;;;5.20;2.17;;;;;;;;;;5031198;28;20054;-70
2022/08/31 10:56:19;;;;;;;7.82;2.80;;;;;;;;;;4999000;28;20060;-69
2022/08/31 10:59:00;;;;;;;6.47;3.00;;;;;;;;;;5018438;28;20504;-68
2022/08/31 11:01:51;;;;;;;10.73;3.10;;;;;;;;;;5034409;28;20052;-68
2022/08/31 11:04:36;;;;;;;8.25;3.92;;;;;;;;;;5051262;28;20509;-69
2022/08/31 11:07:42;;;;;;;;;;;;;;;;;;5051394;28;20040;-68
2022/08/31 11:10:19;;;;;;;4.57;2.25;;;;;;;;;;4975518;28;19948;-69
2022/08/31 11:12:56;;;;;;;5.13;1.83;;;;;;;;;;4991693;28;20050;-69
2022/08/31 11:15:44;;;;;;;10.93;3.83;;;;;;;;;;4960271;28;20510;-68
2022/08/31 11:18:39;;;;;;;9.43;4.28;;;;;;;;;;4991734;28;20105;-68
2022/08/31 11:21:36;;;;;;;6.22;3.00;;;;;;;;;;4991672;28;20054;-68
2022/08/31 11:24:29;;;;;;;5.45;2.40;;;;;;;;;;4991523;28;20054;-68
2022/08/31 11:27:22;;;;;;;4.65;2.40;;;;;;;;;;4975111;28;20046;-69
2022/08/31 11:30:10;;;;;;;7.63;3.03;;;;;;;;;;4960096;28;20054;-68
2022/08/31 11:32:46;;;;;;;3.20;1.33;;;;;;;;;;4991174;28;20630;-68
2022/08/31 11:35:48;;;;;;;3.72;1.08;;;;;;;;;;4991290;28;20066;-69
2022/08/31 11:38:41;;;;;;;2.67;1.17;;;;;;;;;;4959270;28;20043;-68
2022/08/31 11:41:43;;;;;;;3.38;0.80;;;;;;;;;;4991007;28;20494;-69
2022/08/31 11:44:28;;;;;;;2.72;1.00;;;;;;;;;;5008795;28;20672;-69
2022/08/31 11:47:08;;;;;;;1.85;0.70;;;;;;;;;;5030181;28;20049;-69
2022/08/31 11:49:50;;;;;;;2.40;1.10;;;;;;;;;;5014225;28;20056;-70
2022/08/31 11:52:24;;;;;;;1.30;0.70;;;;;;;;;;5030054;28;20057;-70
2022/08/31 11:55:10;;;;;;;2.13;0.90;;;;;;;;;;5029980;28;20064;-70
2022/08/31 11:58:08;;;;;;;1.85;0.77;;;;;;;;;;5010385;28;20061;-71
2022/08/31 12:01:01;;;;;;;4.47;1.05;;;;;;;;;;4976983;28;20058;-71
2022/08/31 12:04:02;;;;;;;2.88;1.20;;;;;;;;;;5010545;28;20065;-71
2022/08/31 12:06:36;;;;;;;1.88;0.70;;;;;;;;;;5010320;28;20057;-71
2022/08/31 12:09:08;;;;;;;1.65;1.02;;;;;;;;;;4961157;28;20050;-72
2022/08/31 12:11:52;;;;;;;2.53;0.93;;;;;;;;;;5026505;28;20054;-71
2022/08/31 12:14:48;;;;;;;1.83;0.75;;;;;;;;;;5009922;28;20053;-70
2022/08/31 12:17:23;;;;;;;3.13;0.90;;;;;;;;;;4977873;28;20050;-72
2022/08/31 12:20:01;;;;;;;3.45;1.70;;;;;;;;;;5028193;28;20049;-72
2022/08/31 12:26:13;;;;;;;3.22;1.15;;;;;;;;;;5029610;28;20068;-71
2022/08/31 12:29:03;;;;;;;2.28;1.00;;;;;;;;;;5051077;28;20059;-71
2022/08/31 12:31:56;;;;;;;1.90;0.88;;;;;;;;;;5069284;28;20535;-70
2022/08/31 12:34:31;;;;;;;2.38;0.70;;;;;;;;;;5069459;28;20048;-71
2022/08/31 12:37:23;;;;;;;2.97;1.15;;;;;;;;;;5053208;28;20562;-72
2022/08/31 12:40:19;;;;;;;4.63;1.10;;;;;;;;;;5069492;28;20168;-71
2022/08/31 12:42:59;;;;;;;2.00;1.08;;;;;;;;;;5069690;28;20420;-72
2022/08/31 12:46:02;;;;;;;2.13;0.70;;;;;;;;;;5069822;28;20052;-72
2022/08/31 12:49:00;;;;;;;7.05;2.90;;;;;;;;;;5069552;28;20084;-70
2022/08/31 12:55:27;;;;;;;2.72;1.13;;;;;;;;;;5036306;28;20431;-72
2022/08/31 13:01:48;;;;;;;1.95;1.13;;;;;;;;;;5072044;28;20052;-73
2022/08/31 13:12:05;;;;;;;38.45;13.23;;;;;;;;;;5073713;28;20037;-70
2022/08/31 13:15:00;;;;;;;3.30;1.63;;;;;;;;;;5057270;28;20052;-74
2022/08/31 13:17:39;;;;;;;8.73;2.25;;;;;;;;;;5075463;28;20057;-71
2022/08/31 13:21:04;;;;;;;5.72;1.35;;;;;;;;;;5073317;28;20061;-71
2022/08/31 13:24:29;;;;;;;3.95;2.30;;;;;;;;;;5075506;28;20052;-71
2022/08/31 13:27:12;;;;;;;2.88;1.58;;;;;;;;;;5008817;28;20416;-72
2022/08/31 13:29:45;;;;;;;2.75;1.40;;;;;;;;;;5056495;28;20059;-74
2022/08/31 13:32:31;;;;;;;3.28;1.15;;;;;;;;;;5075384;28;20392;-74
2022/08/31 13:35:07;;;;;;;2.67;0.73;;;;;;;;;;5056227;28;20408;-74
2022/08/31 13:37:43;;;;;;;1.45;0.73;;;;;;;;;;5072812;28;20056;-72
2022/08/31 13:40:19;;;;;;;2.83;1.17;;;;;;;;;;5056046;28;20052;-72
2022/08/31 13:42:52;;;;;;;2.28;0.90;;;;;;;;;;5056716;28;20534;-73
2022/08/31 13:45:33;;;;;;;3.28;1.10;;;;;;;;;;5055838;28;20056;-73
2022/08/31 13:48:09;;;;;;;4.03;1.10;;;;;;;;;;5072657;28;20048;-76
2022/08/31 13:50:53;;;;;;;2.33;1.17;;;;;;;;;;5052317;28;20413;-76
2022/08/31 13:54:03;;;;;;;2.22;0.95;;;;;;;;;;5052102;28;20068;-72
2022/08/31 13:56:54;;;;;;;2.15;1.05;;;;;;;;;;5052495;28;20124;-73
2022/08/31 13:59:31;;;;;;;3.63;0.95;;;;;;;;;;5052286;28;20053;-72
2022/08/31 14:02:27;;;;;;;3.20;1.15;;;;;;;;;;5052365;28;20069;-75
2022/08/31 14:05:07;;;;;;;2.78;1.00;;;;;;;;;;5052237;28;20056;-75
2022/08/31 14:07:45;;;;;;;3.28;1.08;;;;;;;;;;5052554;28;20048;-75
2022/08/31 14:10:22;;;;;;;1.80;1.10;;;;;;;;;;5072035;28;20049;-73
2022/08/31 14:13:10;;;;;;;3.65;1.08;;;;;;;;;;5055958;28;20397;-74
2022/08/31 14:15:57;;;;;;;1.27;0.80;;;;;;;;;;5022220;28;20052;-74
2022/08/31 14:18:38;;;;;;;4.10;1.02;;;;;;;;;;5071985;28;20045;-74
2022/08/31 14:21:09;;;;;;;1.58;0.88;;;;;;;;;;5051942;28;20057;-75
2022/08/31 14:24:01;;;;;;;3.33;1.42;;;;;;;;;;5051189;28;20064;-75
2022/08/31 14:26:35;;;;;;;2.17;0.80;;;;;;;;;;5051954;28;20416;-72
2022/08/31 14:29:57;;;;;;;2.10;0.90;;;;;;;;;;5036114;28;20056;-72
2022/08/31 14:32:36;;;;;;;2.35;1.10;;;;;;;;;;5056698;28;20064;-73
2022/08/31 14:36:01;;;;;;;1.70;0.80;;;;;;;;;;5071659;28;20048;-71
2022/08/31 14:38:59;;;;;;;3.17;1.15;;;;;;;;;;5071668;28;20044;-69
2022/08/31 14:44:32;;;;;;;1.55;0.90;;;;;;;;;;5038452;28;20551;-74
2022/08/31 14:47:04;;;;;;;2.97;1.20;;;;;;;;;;5051330;28;20539;-75
2022/08/31 14:50:05;;;;;;;3.80;1.00;;;;;;;;;;5051586;28;20409;-73
2022/08/31 14:52:44;;;;;;;2.78;0.93;;;;;;;;;;5035111;28;20536;-75
2022/08/31 14:55:40;;;;;;;1.83;0.93;;;;;;;;;;5051362;28;20464;-74
2022/08/31 14:58:14;;;;;;;2.40;1.08;;;;;;;;;;5016195;28;20058;-74
2022/08/31 15:00:47;;;;;;;1.80;0.90;;;;;;;;;;4935727;28;20532;-75
2022/08/31 15:03:23;;;;;;;1.70;0.90;;;;;;;;;;5031208;28;20164;-73
2022/08/31 15:06:01;;;;;;;1.92;1.00;;;;;;;;;;5031341;28;20056;-75
2022/08/31 15:08:32;;;;;;;2.40;0.90;;;;;;;;;;4982410;28;20049;-74
2022/08/31 15:11:08;;;;;;;2.58;1.10;;;;;;;;;;5031468;28;20449;-74
2022/08/31 15:16:36;;;;;;;2.70;0.90;;;;;;;;;;5031161;28;20074;-76
2022/08/31 15:19:13;;;;;;;2.55;1.17;;;;;;;;;;5011927;28;20056;-73
2022/08/31 15:21:49;;;;;;;2.45;1.00;;;;;;;;;;5015466;28;20062;-73
2022/08/31 15:24:31;;;;;;;1.85;1.02;;;;;;;;;;5030914;28;20065;-76
2022/08/31 15:27:10;;;;;;;4.68;1.08;;;;;;;;;;5031130;28;20045;-76
2022/08/31 15:29:42;;;;;;;1.90;1.02;;;;;;;;;;5015678;28;20058;-74
2022/08/31 15:32:17;;;;;;;4.00;0.93;;;;;;;;;;5030975;28;20045;-70
2022/08/31 15:34:57;;;;;;;2.42;1.08;;;;;;;;;;5031674;28;20441;-77
2022/08/31 15:37:31;;;;;;;1.50;0.80;;;;;;;;;;5017712;28;20056;-78
2022/08/31 15:40:04;;;;;;;3.20;1.45;;;;;;;;;;5010916;28;20082;-78
2022/08/31 15:42:38;;;;;;;2.83;1.00;;;;;;;;;;5010842;28;20060;-76
2022/08/31 15:45:09;;;;;;;1.63;0.90;;;;;;;;;;5010956;28;20155;-76
2022/08/31 15:50:35;;;;;;;3.03;1.20;;;;;;;;;;5010888;28;20058;-76
2022/08/31 15:53:10;;;;;;;2.22;0.90;;;;;;;;;;5010698;28;20056;-76
2022/08/31 15:55:43;;;;;;;3.22;1.15;;;;;;;;;;5013116;28;20058;-76
2022/08/31 15:58:15;;;;;;;2.05;0.90;;;;;;;;;;5050193;28;20052;-77
2022/08/31 16:00:52;;;;;;;5.38;0.90;;;;;;;;;;5018741;28;20053;-78
2022/08/31 16:03:23;;;;;;;1.92;0.90;;;;;;;;;;5000739;28;20056;-76
2022/08/31 16:05:57;;;;;;;1.33;0.75;;;;;;;;;;5001004;28;20061;-73
2022/08/31 16:08:34;;;;;;;6.10;0.90;;;;;;;;;;5050094;28;20053;-73
2022/08/31 16:11:11;;;;;;;3.15;1.00;;;;;;;;;;5050219;28;20053;-77
2022/08/31 16:13:50;;;;;;;2.65;0.70;;;;;;;;;;5034484;28;20064;-77
2022/08/31 16:16:21;;;;;;;2.15;0.80;;;;;;;;;;5049987;28;20128;-77
2022/08/31 16:18:56;;;;;;;1.58;0.88;;;;;;;;;;5069784;28;20566;-74
2022/08/31 16:21:27;;;;;;;2.53;0.82;;;;;;;;;;5069715;28;20559;-77
2022/08/31 16:24:00;;;;;;;1.88;1.02;;;;;;;;;;5069985;28;20045;-75
2022/08/31 16:26:35;;;;;;;3.72;1.00;;;;;;;;;;5053670;28;20496;-76
2022/08/31 16:29:11;;;;;;;1.63;1.00;;;;;;;;;;5049449;28;20045;-76
2022/08/31 16:31:44;;;;;;;2.05;0.93;;;;;;;;;;5049462;28;20056;-76
2022/08/31 16:34:17;;;;;;;2.67;1.27;;;;;;;;;;5016565;28;20064;-77